Time;durP1;ratioP1;P1;durP2;ratioP2;P2;SDS_P1;SDS_P2;PMS_P1;PMS_P2;Temp;Humidity;BMP_temperature;BMP_pressure;BME280_temperature;BME280_humidity;BME280_pressure;Samples;Min_cycle;Max_cycle;Signal;HPM_P1;HPM_P2
2021/08/08 00:00:40;;;;;;;2.40;1.13;;;18.00;99.90;;;;;;5028188;28;20433;-38
2021/08/08 00:03:06;;;;;;;2.57;1.20;;;18.00;99.90;;;;;;5039693;28;20421;-39
2021/08/08 00:05:32;;;;;;;1.47;1.20;;;18.00;99.90;;;;;;5046821;28;20228;-37
2021/08/08 00:07:57;;;;;;;1.80;1.10;;;18.00;99.90;;;;;;5028301;28;20676;-37
2021/08/08 00:10:23;;;;;;;2.00;1.07;;;18.00;99.90;;;;;;5031147;28;20261;-38
2021/08/08 00:12:49;;;;;;;1.47;1.30;;;18.00;99.90;;;;;;5027718;28;20244;-38
2021/08/08 00:15:15;;;;;;;3.27;1.70;;;18.00;99.90;;;;;;5027838;28;20201;-37
2021/08/08 00:17:41;;;;;;;2.80;1.27;;;18.00;99.90;;;;;;5031233;28;20277;-37
2021/08/08 00:20:08;;;;;;;1.23;1.07;;;18.00;99.90;;;;;;5034888;28;20542;-38
2021/08/08 00:22:34;;;;;;;2.10;1.27;;;17.90;99.90;;;;;;5027523;28;20205;-37
2021/08/08 00:25:02;;;;;;;2.30;1.30;;;17.90;99.90;;;;;;5039333;28;20416;-38
2021/08/08 00:27:28;;;;;;;2.87;1.57;;;17.90;99.90;;;;;;5028299;28;20496;-37
2021/08/08 00:29:54;;;;;;;1.93;1.10;;;17.80;99.90;;;;;;5027725;28;20517;-37
2021/08/08 00:32:19;;;;;;;1.20;1.10;;;17.80;99.90;;;;;;5029004;28;20198;-40
2021/08/08 00:34:45;;;;;;;2.30;1.10;;;17.90;99.90;;;;;;5033947;28;20554;-37
2021/08/08 00:37:11;;;;;;;2.70;1.70;;;17.80;99.90;;;;;;5027526;28;20198;-38
2021/08/08 00:39:37;;;;;;;2.17;1.30;;;17.80;99.90;;;;;;5035644;28;20265;-37
2021/08/08 00:42:03;;;;;;;1.70;1.40;;;17.70;99.90;;;;;;5027957;28;20182;-40
2021/08/08 00:44:28;;;;;;;2.17;1.70;;;17.60;99.90;;;;;;5027041;28;20779;-37
2021/08/08 00:46:54;;;;;;;2.20;1.37;;;17.60;99.90;;;;;;5028202;28;20477;-38
2021/08/08 00:49:20;;;;;;;2.00;1.33;;;17.60;99.90;;;;;;5040346;28;20182;-37
2021/08/08 00:51:46;;;;;;;2.10;1.20;;;17.70;99.90;;;;;;5027621;28;20717;-38
2021/08/08 00:54:12;;;;;;;3.43;1.40;;;17.70;99.90;;;;;;5030717;28;20174;-38
2021/08/08 00:56:38;;;;;;;1.80;1.30;;;17.70;99.90;;;;;;5028253;28;20425;-38
2021/08/08 00:59:05;;;;;;;3.20;1.73;;;17.70;99.90;;;;;;5027024;28;20181;-39
2021/08/08 01:01:36;;;;;;;2.13;1.37;;;17.60;99.90;;;;;;5029067;28;20446;-37
2021/08/08 01:04:03;;;;;;;2.10;1.60;;;17.70;99.90;;;;;;5041239;28;20440;-38
2021/08/08 01:06:51;;;;;;;2.00;1.50;;;17.70;99.90;;;;;;5031721;28;20886;-37
2021/08/08 01:09:18;;;;;;;3.03;1.50;;;17.70;99.90;;;;;;5026968;28;20448;-39
2021/08/08 01:11:44;;;;;;;3.77;1.93;;;17.70;99.90;;;;;;5026545;28;20442;-38
2021/08/08 01:14:11;;;;;;;1.90;1.57;;;17.70;99.90;;;;;;5026361;28;20431;-38
2021/08/08 01:16:39;;;;;;;1.70;1.60;;;17.70;99.90;;;;;;5029715;28;20987;-37
2021/08/08 01:19:06;;;;;;;3.57;2.03;;;17.70;99.90;;;;;;5036151;28;20421;-38
2021/08/08 01:21:32;;;;;;;2.53;1.60;;;17.70;99.90;;;;;;5030672;28;20430;-38
2021/08/08 01:23:59;;;;;;;2.70;1.57;;;17.70;99.90;;;;;;5026428;28;20425;-37
2021/08/08 01:26:27;;;;;;;3.17;1.80;;;17.70;99.90;;;;;;5035441;28;20992;-38
2021/08/08 01:28:54;;;;;;;1.70;1.60;;;17.70;99.90;;;;;;5026430;28;20452;-37
2021/08/08 01:31:20;;;;;;;1.60;1.50;;;17.70;99.90;;;;;;5025636;28;20512;-37
2021/08/08 01:33:46;;;;;;;4.50;2.30;;;17.70;99.90;;;;;;5033097;28;20817;-37
2021/08/08 01:36:12;;;;;;;2.27;2.07;;;17.70;99.90;;;;;;5031823;28;20789;-37
2021/08/08 01:38:45;;;;;;;1.90;1.80;;;17.60;99.90;;;;;;5025876;28;20433;-38
2021/08/08 01:41:13;;;;;;;4.93;2.77;;;17.60;99.90;;;;;;5031864;28;20420;-38
2021/08/08 01:43:44;;;;;;;2.60;2.13;;;17.60;99.90;;;;;;5025762;28;20476;-37
2021/08/08 01:46:12;;;;;;;2.30;2.20;;;17.60;99.90;;;;;;5026139;28;20631;-37
2021/08/08 01:48:41;;;;;;;5.00;2.63;;;17.60;99.90;;;;;;5039437;28;20526;-37
2021/08/08 01:51:07;;;;;;;3.90;2.00;;;17.60;99.90;;;;;;5042859;28;20755;-38
2021/08/08 01:53:33;;;;;;;2.60;2.10;;;17.60;99.90;;;;;;5025482;28;20791;-38
2021/08/08 01:55:59;;;;;;;3.37;2.63;;;17.60;99.90;;;;;;5028307;28;20430;-38
2021/08/08 01:58:27;;;;;;;4.20;2.57;;;17.60;99.90;;;;;;5025749;28;20413;-37
2021/08/08 02:00:56;;;;;;;2.50;2.30;;;17.60;99.90;;;;;;5025077;28;20460;-38
2021/08/08 02:03:32;;;;;;;7.53;2.80;;;17.60;99.90;;;;;;5033940;28;20416;-37
2021/08/08 02:05:57;;;;;;;3.90;2.30;;;17.60;99.90;;;;;;5036867;28;20468;-38
2021/08/08 02:08:23;;;;;;;3.43;2.87;;;17.60;99.90;;;;;;5025547;28;20951;-37
2021/08/08 02:10:48;;;;;;;3.90;2.30;;;17.60;99.90;;;;;;5036480;28;20216;-37
2021/08/08 02:13:14;;;;;;;4.87;2.83;;;17.50;99.90;;;;;;5025393;28;20678;-38
2021/08/08 02:15:40;;;;;;;4.77;2.37;;;17.50;99.90;;;;;;5025267;28;20210;-39
2021/08/08 02:18:06;;;;;;;4.33;2.77;;;17.50;99.90;;;;;;5027765;28;20676;-37
2021/08/08 02:20:31;;;;;;;3.83;2.57;;;17.50;99.90;;;;;;5037500;28;20281;-37
2021/08/08 02:22:57;;;;;;;3.30;2.70;;;17.50;99.90;;;;;;5026228;28;20708;-37
2021/08/08 02:25:23;;;;;;;4.17;2.67;;;17.50;99.90;;;;;;5032360;28;20619;-38
2021/08/08 02:27:48;;;;;;;4.17;2.50;;;17.50;99.90;;;;;;5025745;28;20269;-37
2021/08/08 02:30:14;;;;;;;5.07;2.43;;;17.50;99.90;;;;;;5023573;28;20179;-37
2021/08/08 02:32:40;;;;;;;6.90;2.90;;;17.50;99.90;;;;;;5032082;28;20190;-38
2021/08/08 02:35:06;;;;;;;4.70;2.80;;;17.40;99.90;;;;;;5034559;28;20189;-37
2021/08/08 02:37:32;;;;;;;7.23;2.70;;;17.30;99.90;;;;;;5036796;28;20182;-39
2021/08/08 02:39:58;;;;;;;4.87;2.60;;;17.40;99.90;;;;;;5027473;28;20923;-37
2021/08/08 02:42:23;;;;;;;3.73;2.70;;;17.40;99.90;;;;;;5025596;28;20248;-38
2021/08/08 02:44:49;;;;;;;3.23;2.30;;;17.30;99.90;;;;;;5024718;28;20182;-37
2021/08/08 02:47:15;;;;;;;3.60;2.40;;;17.40;99.90;;;;;;5031211;28;20189;-37
2021/08/08 02:49:41;;;;;;;7.37;2.90;;;17.40;99.90;;;;;;5029130;28;20276;-38
2021/08/08 02:52:07;;;;;;;6.43;3.13;;;17.40;99.90;;;;;;5027166;28;20205;-38
2021/08/08 02:54:33;;;;;;;6.63;3.83;;;17.30;99.90;;;;;;5025584;28;20643;-37
2021/08/08 02:56:58;;;;;;;4.30;2.77;;;17.30;99.90;;;;;;5033393;28;20477;-37
2021/08/08 02:59:24;;;;;;;4.30;2.47;;;17.40;99.90;;;;;;5045041;28;20448;-41
2021/08/08 03:01:50;;;;;;;4.00;2.60;;;17.40;99.90;;;;;;5044212;28;20205;-38
2021/08/08 03:04:16;;;;;;;3.60;2.53;;;17.30;99.90;;;;;;5031835;28;20756;-37
2021/08/08 03:06:45;;;;;;;4.73;2.77;;;17.40;99.90;;;;;;5034463;28;20774;-37
2021/08/08 03:09:11;;;;;;;5.20;2.20;;;17.40;99.90;;;;;;5025131;28;20445;-37
2021/08/08 03:11:45;;;;;;;4.57;2.50;;;17.40;99.90;;;;;;5031499;28;20457;-38
2021/08/08 03:14:12;;;;;;;7.03;2.47;;;17.30;99.90;;;;;;5024920;28;20459;-38
2021/08/08 03:16:37;;;;;;;5.30;2.50;;;17.40;99.90;;;;;;5024676;28;20441;-37
2021/08/08 03:19:03;;;;;;;5.13;2.40;;;17.40;99.90;;;;;;5030723;28;20483;-37
2021/08/08 03:21:29;;;;;;;6.57;2.60;;;17.30;99.90;;;;;;5042871;28;20186;-37
2021/08/08 03:23:54;;;;;;;3.23;2.50;;;17.30;99.90;;;;;;5027877;28;20194;-37
2021/08/08 03:26:20;;;;;;;4.60;2.70;;;17.20;99.90;;;;;;5028237;28;20211;-37
2021/08/08 03:28:45;;;;;;;4.30;2.30;;;17.20;99.90;;;;;;5028361;28;20186;-38
2021/08/08 03:31:12;;;;;;;8.60;3.30;;;17.20;99.90;;;;;;5028544;28;20224;-38
2021/08/08 03:33:38;;;;;;;5.43;2.57;;;17.30;99.90;;;;;;5036083;28;20214;-37
2021/08/08 03:36:04;;;;;;;5.70;2.40;;;17.20;99.90;;;;;;5043084;28;20975;-37
2021/08/08 03:38:29;;;;;;;4.40;2.90;;;17.20;99.90;;;;;;5028361;28;20195;-38
2021/08/08 03:40:55;;;;;;;5.50;2.90;;;17.20;99.90;;;;;;5031903;28;20500;-38
2021/08/08 03:43:21;;;;;;;4.17;2.37;;;17.10;99.90;;;;;;5038882;28;20193;-37
2021/08/08 03:45:46;;;;;;;10.97;2.97;;;17.10;99.90;;;;;;5031287;28;20213;-37
2021/08/08 03:48:12;;;;;;;5.17;2.87;;;17.20;99.90;;;;;;5033376;28;20588;-37
2021/08/08 03:50:39;;;;;;;5.90;2.70;;;17.10;99.90;;;;;;5043636;28;20424;-37
2021/08/08 03:53:06;;;;;;;3.47;2.40;;;17.20;99.90;;;;;;5036726;28;20195;-37
2021/08/08 03:55:31;;;;;;;4.70;2.87;;;17.20;99.90;;;;;;5029116;28;20483;-37
2021/08/08 03:57:57;;;;;;;5.13;2.70;;;17.20;99.90;;;;;;5027833;28;20518;-38
2021/08/08 04:00:23;;;;;;;4.63;2.70;;;17.30;99.90;;;;;;5027825;28;20541;-37
2021/08/08 04:02:50;;;;;;;4.77;2.93;;;17.30;99.90;;;;;;5035170;28;20280;-38
2021/08/08 04:05:16;;;;;;;5.80;2.70;;;17.20;99.90;;;;;;5041409;28;20489;-37
2021/08/08 04:07:41;;;;;;;6.60;2.70;;;17.20;99.90;;;;;;5032065;28;20905;-37
2021/08/08 04:10:08;;;;;;;6.87;2.77;;;17.20;99.90;;;;;;5026795;28;20186;-38
2021/08/08 04:12:33;;;;;;;7.97;3.07;;;17.10;99.90;;;;;;5037464;28;20221;-37
2021/08/08 04:15:02;;;;;;;6.03;3.03;;;17.10;99.90;;;;;;5027551;28;20429;-38
2021/08/08 04:17:28;;;;;;;4.43;3.03;;;17.00;99.90;;;;;;5028240;28;20185;-37
2021/08/08 04:19:53;;;;;;;4.23;2.90;;;17.00;99.90;;;;;;5036529;28;20422;-37
2021/08/08 04:22:20;;;;;;;4.27;2.57;;;17.00;99.90;;;;;;5034047;28;20444;-40
2021/08/08 04:24:46;;;;;;;6.30;3.20;;;17.00;99.90;;;;;;5027128;28;20244;-37
2021/08/08 04:27:13;;;;;;;4.87;2.70;;;17.00;99.90;;;;;;5033746;28;20460;-37
2021/08/08 04:29:39;;;;;;;4.10;2.90;;;17.10;99.90;;;;;;5027269;28;20194;-37
2021/08/08 04:32:05;;;;;;;6.20;2.53;;;17.10;99.90;;;;;;5025860;28;20441;-37
2021/08/08 04:34:31;;;;;;;5.23;2.90;;;17.10;99.90;;;;;;5033244;28;20421;-37
2021/08/08 04:36:59;;;;;;;5.50;2.80;;;17.10;99.90;;;;;;5041173;28;20447;-38
2021/08/08 04:39:25;;;;;;;8.63;2.30;;;17.10;99.90;;;;;;5029805;28;20420;-38
2021/08/08 04:41:52;;;;;;;6.23;2.83;;;17.10;99.90;;;;;;5029573;28;20508;-38
2021/08/08 04:44:19;;;;;;;5.57;2.70;;;17.00;99.90;;;;;;5039152;28;20420;-37
2021/08/08 04:46:44;;;;;;;3.37;3.00;;;17.00;99.90;;;;;;5027744;28;20544;-38
2021/08/08 04:49:10;;;;;;;5.00;2.73;;;17.00;99.90;;;;;;5036789;28;20551;-37
2021/08/08 04:51:36;;;;;;;4.13;2.23;;;17.00;99.90;;;;;;5039757;28;20185;-39
2021/08/08 04:54:01;;;;;;;2.93;2.30;;;17.00;99.90;;;;;;5034334;28;20220;-38
2021/08/08 04:56:27;;;;;;;6.07;2.67;;;17.10;99.90;;;;;;5030526;28;20218;-37
2021/08/08 04:58:52;;;;;;;3.63;2.37;;;17.10;99.90;;;;;;5025727;28;20201;-39
2021/08/08 05:01:18;;;;;;;5.13;3.03;;;17.00;99.90;;;;;;5026463;28;20190;-37
2021/08/08 05:03:44;;;;;;;6.07;3.17;;;17.00;99.90;;;;;;5036298;28;20280;-38
2021/08/08 05:06:10;;;;;;;5.47;2.90;;;17.00;99.90;;;;;;5040556;28;20202;-38
2021/08/08 05:08:35;;;;;;;4.77;2.70;;;17.10;99.90;;;;;;5034321;28;20272;-40
2021/08/08 05:11:01;;;;;;;5.20;2.67;;;17.00;99.90;;;;;;5026741;28;20186;-38
2021/08/08 05:13:29;;;;;;;4.97;2.90;;;17.00;99.90;;;;;;5026232;28;20244;-38
2021/08/08 05:15:55;;;;;;;6.20;3.07;;;17.00;99.90;;;;;;5026809;28;20240;-38
2021/08/08 05:18:20;;;;;;;4.33;2.57;;;17.00;99.90;;;;;;5025787;28;20943;-38
2021/08/08 05:20:46;;;;;;;4.40;3.17;;;17.10;99.90;;;;;;5028381;28;20528;-38
2021/08/08 05:23:12;;;;;;;7.97;3.50;;;17.10;99.90;;;;;;5027855;28;20659;-38
2021/08/08 05:25:37;;;;;;;7.33;3.20;;;17.00;99.90;;;;;;5027204;28;20297;-38
2021/08/08 05:28:03;;;;;;;7.87;3.33;;;17.00;99.90;;;;;;5034742;28;20237;-38
2021/08/08 05:30:29;;;;;;;5.37;2.70;;;17.00;99.90;;;;;;5026201;28;20189;-38
2021/08/08 05:32:54;;;;;;;5.40;3.50;;;17.00;99.90;;;;;;5026736;28;20178;-38
2021/08/08 05:35:20;;;;;;;5.13;2.67;;;17.00;99.90;;;;;;5029522;28;20190;-38
2021/08/08 05:37:46;;;;;;;5.47;3.07;;;17.10;99.90;;;;;;5034104;28;20194;-38
2021/08/08 05:40:12;;;;;;;4.37;2.70;;;17.00;99.90;;;;;;5026395;28;20205;-37
2021/08/08 05:42:38;;;;;;;7.03;2.77;;;17.00;99.90;;;;;;5030961;28;20193;-38
2021/08/08 05:45:05;;;;;;;7.87;3.60;;;17.00;99.90;;;;;;5024719;28;21086;-38
2021/08/08 05:47:31;;;;;;;4.50;2.80;;;17.00;99.90;;;;;;5025463;28;20195;-38
2021/08/08 05:49:57;;;;;;;6.37;3.00;;;17.00;99.90;;;;;;5029589;28;20409;-42
2021/08/08 05:52:23;;;;;;;4.60;2.93;;;17.00;99.90;;;;;;5036496;28;20483;-38
2021/08/08 05:54:49;;;;;;;6.50;3.30;;;17.00;99.90;;;;;;5025540;28;20452;-37
2021/08/08 05:57:14;;;;;;;5.03;3.10;;;17.00;99.90;;;;;;5027222;28;20623;-38
2021/08/08 05:59:40;;;;;;;7.87;3.13;;;17.00;99.90;;;;;;5024514;28;20258;-38
2021/08/08 06:02:06;;;;;;;7.33;3.53;;;17.00;99.90;;;;;;5026319;28;20184;-38
2021/08/08 06:04:32;;;;;;;8.17;3.80;;;17.00;99.90;;;;;;5029109;28;20189;-38
2021/08/08 06:06:57;;;;;;;7.33;3.17;;;17.10;99.90;;;;;;5033132;28;20222;-38
2021/08/08 06:09:23;;;;;;;11.10;3.20;;;17.10;99.90;;;;;;5025857;28;20549;-38
2021/08/08 06:11:49;;;;;;;6.80;3.70;;;17.00;99.90;;;;;;5033600;28;20190;-38
2021/08/08 06:14:15;;;;;;;8.53;3.40;;;17.00;99.90;;;;;;5027619;28;20190;-37
2021/08/08 06:16:41;;;;;;;7.00;3.07;;;17.00;99.90;;;;;;5024548;28;20699;-38
2021/08/08 06:19:06;;;;;;;7.00;2.90;;;17.00;99.90;;;;;;5029227;28;20441;-37
2021/08/08 06:21:32;;;;;;;6.73;3.23;;;17.00;99.90;;;;;;5033801;28;20182;-38
2021/08/08 06:23:58;;;;;;;8.73;3.07;;;17.00;99.90;;;;;;5026220;28;20267;-37
2021/08/08 06:26:23;;;;;;;7.30;3.70;;;17.00;99.90;;;;;;5029392;28;20247;-38
2021/08/08 06:28:49;;;;;;;8.17;3.37;;;17.10;99.90;;;;;;5027666;28;20598;-38
2021/08/08 06:31:14;;;;;;;12.10;4.20;;;17.10;99.90;;;;;;5025161;28;20189;-38
2021/08/08 06:33:40;;;;;;;7.37;3.43;;;17.00;99.90;;;;;;5027735;28;20244;-37
2021/08/08 06:36:06;;;;;;;6.53;3.37;;;17.00;99.90;;;;;;5040993;28;20205;-37
2021/08/08 06:38:33;;;;;;;6.73;3.20;;;17.00;99.90;;;;;;5038821;28;20494;-37
2021/08/08 06:40:59;;;;;;;7.47;3.63;;;17.00;99.90;;;;;;5025412;28;20193;-37
2021/08/08 06:43:25;;;;;;;5.83;2.83;;;17.10;99.90;;;;;;5026749;28;20426;-38
2021/08/08 06:45:50;;;;;;;5.87;2.97;;;17.10;99.90;;;;;;5025295;28;20214;-38
2021/08/08 06:48:16;;;;;;;5.03;3.63;;;17.20;99.90;;;;;;5028262;28;20188;-38
2021/08/08 06:50:42;;;;;;;6.00;3.33;;;17.20;99.90;;;;;;5035223;28;20181;-38
2021/08/08 06:53:07;;;;;;;7.27;3.60;;;17.20;99.90;;;;;;5033488;28;20207;-38
2021/08/08 06:55:33;;;;;;;6.50;3.23;;;17.20;99.90;;;;;;5025266;28;20190;-40
2021/08/08 06:57:59;;;;;;;7.07;3.17;;;17.10;99.90;;;;;;5036505;28;20556;-38
2021/08/08 07:00:24;;;;;;;5.30;3.10;;;17.10;99.90;;;;;;5024315;28;20217;-37
2021/08/08 07:02:50;;;;;;;5.30;2.93;;;17.00;99.90;;;;;;5028161;28;20691;-38
2021/08/08 07:05:16;;;;;;;4.30;2.83;;;17.10;99.90;;;;;;5036541;28;20266;-38
2021/08/08 07:07:42;;;;;;;4.90;3.30;;;17.10;99.90;;;;;;5037111;28;20425;-38
2021/08/08 07:10:08;;;;;;;7.83;3.30;;;17.10;99.90;;;;;;5029500;28;20448;-38
2021/08/08 07:12:34;;;;;;;4.23;2.70;;;17.10;99.90;;;;;;5034736;28;20189;-40
2021/08/08 07:14:59;;;;;;;5.33;3.07;;;17.10;99.90;;;;;;5028738;28;20982;-39
2021/08/08 07:17:25;;;;;;;6.03;3.27;;;17.20;99.90;;;;;;5028975;28;20191;-41
2021/08/08 07:19:51;;;;;;;5.50;2.90;;;17.10;99.90;;;;;;5038576;28;20269;-39
2021/08/08 07:22:16;;;;;;;4.27;2.97;;;17.10;99.90;;;;;;5039547;28;20740;-39
2021/08/08 07:24:44;;;;;;;6.53;3.50;;;17.10;99.90;;;;;;5038652;28;20191;-41
2021/08/08 07:27:11;;;;;;;5.07;3.40;;;17.10;99.90;;;;;;5031568;28;20210;-38
2021/08/08 07:29:37;;;;;;;5.97;3.40;;;17.10;99.90;;;;;;5038680;28;20791;-38
2021/08/08 07:32:03;;;;;;;4.77;3.10;;;17.20;99.90;;;;;;5047448;28;20427;-39
2021/08/08 07:34:28;;;;;;;4.70;3.20;;;17.20;99.90;;;;;;5042389;28;20181;-38
2021/08/08 07:36:56;;;;;;;7.30;3.10;;;17.20;99.90;;;;;;5044332;28;20431;-38
2021/08/08 07:39:21;;;;;;;5.40;3.27;;;17.20;99.90;;;;;;5037600;28;20557;-38
2021/08/08 07:41:47;;;;;;;3.83;3.00;;;17.10;99.90;;;;;;5036439;28;20439;-37
2021/08/08 07:44:13;;;;;;;7.00;3.60;;;17.10;99.90;;;;;;5026228;28;20571;-38
2021/08/08 07:46:38;;;;;;;6.10;3.30;;;17.20;99.90;;;;;;5026500;28;20217;-39
2021/08/08 07:49:04;;;;;;;7.53;3.10;;;17.20;99.90;;;;;;5026240;28;20654;-38
2021/08/08 07:51:30;;;;;;;7.23;4.10;;;17.30;99.90;;;;;;5031558;28;20182;-38
2021/08/08 07:53:55;;;;;;;7.00;3.40;;;17.20;99.90;;;;;;5032745;28;20523;-38
2021/08/08 07:56:21;;;;;;;6.13;3.43;;;17.30;99.90;;;;;;5027807;28;20183;-40
2021/08/08 07:58:46;;;;;;;4.40;2.90;;;17.30;99.90;;;;;;5034654;28;20202;-38
2021/08/08 08:01:12;;;;;;;6.20;2.93;;;17.40;99.90;;;;;;5026966;28;20186;-38
2021/08/08 08:03:38;;;;;;;6.50;3.47;;;17.40;99.90;;;;;;5026147;28;20232;-38
2021/08/08 08:06:03;;;;;;;6.47;3.87;;;17.50;99.90;;;;;;5029466;28;20599;-39
2021/08/08 08:08:29;;;;;;;4.50;3.40;;;17.50;99.90;;;;;;5045389;28;20580;-39
2021/08/08 08:10:55;;;;;;;5.10;3.40;;;17.60;99.90;;;;;;5029054;28;20209;-38
2021/08/08 08:13:21;;;;;;;7.20;4.27;;;17.60;99.90;;;;;;5029844;28;20569;-39
2021/08/08 08:15:47;;;;;;;3.67;2.93;;;17.70;99.90;;;;;;5027156;28;20429;-41
2021/08/08 08:18:13;;;;;;;4.40;2.90;;;17.80;99.90;;;;;;5035623;28;20186;-39
2021/08/08 08:20:39;;;;;;;6.70;4.20;;;17.80;99.90;;;;;;5038765;28;20216;-40
2021/08/08 08:23:05;;;;;;;6.57;3.57;;;17.90;99.90;;;;;;5038938;28;20420;-38
2021/08/08 08:25:31;;;;;;;4.47;3.13;;;17.90;99.90;;;;;;5033866;28;20202;-39
2021/08/08 08:27:56;;;;;;;5.87;3.23;;;17.90;99.90;;;;;;5034844;28;20240;-38
2021/08/08 08:30:22;;;;;;;6.50;3.07;;;17.90;99.90;;;;;;5033124;28;20182;-38
2021/08/08 08:32:47;;;;;;;6.67;3.50;;;17.90;99.90;;;;;;5035683;28;20576;-40
2021/08/08 08:35:13;;;;;;;6.87;2.93;;;18.00;99.90;;;;;;5032800;28;20269;-39
2021/08/08 08:37:39;;;;;;;8.00;3.40;;;18.00;99.90;;;;;;5040308;28;20412;-38
2021/08/08 08:40:06;;;;;;;6.13;2.57;;;18.10;99.90;;;;;;5042420;28;20186;-38
2021/08/08 08:42:35;;;;;;;5.57;3.17;;;18.10;99.90;;;;;;5032277;28;20592;-38
2021/08/08 08:45:01;;;;;;;7.37;3.20;;;18.20;99.90;;;;;;5027693;28;20425;-38
2021/08/08 08:47:30;;;;;;;6.60;3.40;;;18.30;99.90;;;;;;5025965;28;20527;-38
2021/08/08 08:49:59;;;;;;;4.57;3.07;;;18.40;99.90;;;;;;5031830;28;20798;-40
2021/08/08 08:52:28;;;;;;;5.00;2.90;;;18.30;99.90;;;;;;5041396;28;20420;-38
2021/08/08 08:54:55;;;;;;;6.20;3.43;;;18.30;99.90;;;;;;5033100;28;20432;-38
2021/08/08 08:57:21;;;;;;;3.80;3.23;;;18.30;99.90;;;;;;5047882;28;20763;-39
2021/08/08 08:59:48;;;;;;;7.57;3.43;;;18.40;99.90;;;;;;5030845;28;20453;-38
2021/08/08 09:02:14;;;;;;;7.30;2.93;;;18.40;99.90;;;;;;5036973;28;21194;-40
2021/08/08 09:04:40;;;;;;;6.70;2.93;;;18.50;99.90;;;;;;5036468;28;20428;-39
2021/08/08 09:07:06;;;;;;;8.73;2.97;;;18.50;99.90;;;;;;5047097;28;20869;-38
2021/08/08 09:09:33;;;;;;;7.13;3.57;;;18.60;99.90;;;;;;5036840;28;20983;-38
2021/08/08 09:11:58;;;;;;;8.10;3.10;;;18.60;99.90;;;;;;5035547;28;20415;-39
2021/08/08 09:14:24;;;;;;;6.20;3.33;;;18.60;99.90;;;;;;5037277;28;20408;-38
2021/08/08 09:16:53;;;;;;;6.47;2.67;;;18.60;99.90;;;;;;5036655;28;20186;-38
2021/08/08 09:19:24;;;;;;;7.70;3.83;;;18.50;99.90;;;;;;5036560;28;20834;-39
2021/08/08 09:21:50;;;;;;;4.57;2.80;;;18.60;99.90;;;;;;5040305;28;20448;-41
2021/08/08 09:24:34;;;;;;;6.87;2.60;;;18.70;99.90;;;;;;5037083;28;20540;-38
2021/08/08 09:27:00;;;;;;;7.97;3.50;;;18.80;99.90;;;;;;5038586;28;20452;-38
2021/08/08 09:29:26;;;;;;;9.93;3.20;;;18.90;99.90;;;;;;5035828;28;20644;-38
2021/08/08 09:31:52;;;;;;;5.77;3.40;;;19.00;99.90;;;;;;5028054;28;20445;-38
2021/08/08 09:34:27;;;;;;;7.07;3.20;;;19.00;99.90;;;;;;5032865;28;20470;-38
2021/08/08 09:36:54;;;;;;;5.10;2.90;;;19.10;99.90;;;;;;5035975;28;20177;-39
2021/08/08 09:39:43;;;;;;;4.67;3.10;;;19.10;99.90;;;;;;5034607;28;20465;-38
2021/08/08 09:42:10;;;;;;;8.73;3.10;;;19.10;99.90;;;;;;5033372;28;20413;-40
2021/08/08 09:44:37;;;;;;;5.30;3.17;;;19.10;99.90;;;;;;5034528;28;20428;-38
2021/08/08 09:47:04;;;;;;;6.17;3.50;;;19.00;99.90;;;;;;5035392;28;20459;-39
2021/08/08 09:49:29;;;;;;;5.13;3.00;;;19.00;99.90;;;;;;5034258;28;20442;-39
2021/08/08 09:51:55;;;;;;;7.33;3.23;;;18.90;99.90;;;;;;5039099;28;20417;-38
2021/08/08 09:54:21;;;;;;;4.03;2.83;;;19.00;99.90;;;;;;5038501;28;20335;-38
2021/08/08 09:57:02;;;;;;;6.93;3.17;;;19.00;99.90;;;;;;5034046;28;20273;-38
2021/08/08 09:59:28;;;;;;;4.70;3.10;;;19.00;99.90;;;;;;5035141;28;20193;-40
2021/08/08 10:01:53;;;;;;;6.00;3.10;;;19.00;99.90;;;;;;5033555;28;20425;-38
2021/08/08 10:04:19;;;;;;;4.93;3.10;;;19.00;99.90;;;;;;5034011;28;20198;-41
2021/08/08 10:06:45;;;;;;;5.60;2.93;;;19.00;99.90;;;;;;5038528;28;20560;-38
2021/08/08 10:09:12;;;;;;;5.53;2.57;;;18.90;99.90;;;;;;5037843;28;20204;-38
2021/08/08 10:11:43;;;;;;;8.23;2.93;;;18.90;99.90;;;;;;5046676;28;20545;-38
2021/08/08 10:14:11;;;;;;;7.83;3.07;;;19.00;99.90;;;;;;5028727;28;20436;-38
2021/08/08 10:16:39;;;;;;;5.80;3.60;;;19.00;99.90;;;;;;5026936;28;20409;-41
2021/08/08 10:19:06;;;;;;;6.47;2.90;;;19.00;99.90;;;;;;5025911;28;20508;-38
2021/08/08 10:21:33;;;;;;;9.43;2.90;;;18.90;99.90;;;;;;5031956;28;20421;-38
2021/08/08 10:24:02;;;;;;;6.13;2.40;;;18.90;99.90;;;;;;5037246;28;20772;-39
2021/08/08 10:26:28;;;;;;;3.47;2.77;;;18.90;99.90;;;;;;5016633;28;20469;-38
2021/08/08 10:28:56;;;;;;;6.30;3.00;;;18.90;99.90;;;;;;5038983;28;20425;-40
2021/08/08 10:31:23;;;;;;;9.30;2.90;;;18.90;99.90;;;;;;5026387;28;20413;-38
2021/08/08 10:33:52;;;;;;;5.27;3.37;;;18.90;99.90;;;;;;5027673;28;20425;-39
2021/08/08 10:36:28;;;;;;;5.73;2.60;;;19.00;99.90;;;;;;5034221;28;20450;-40
2021/08/08 10:39:09;;;;;;;6.67;3.10;;;19.10;99.90;;;;;;5039594;28;20423;-38
2021/08/08 10:41:35;;;;;;;6.13;3.00;;;19.20;99.90;;;;;;5043127;28;20416;-38
2021/08/08 10:44:15;;;;;;;3.57;2.80;;;19.20;99.90;;;;;;5038959;28;20405;-39
2021/08/08 10:46:51;;;;;;;4.30;2.90;;;19.30;99.90;;;;;;5040711;28;20597;-38
2021/08/08 10:49:30;;;;;;;5.73;3.10;;;19.40;99.90;;;;;;5038835;28;20430;-38
2021/08/08 10:52:04;;;;;;;3.13;2.40;;;19.40;99.90;;;;;;5041804;28;20412;-38
2021/08/08 10:54:52;;;;;;;7.63;2.73;;;19.40;99.90;;;;;;5040092;28;20881;-39
2021/08/08 10:57:19;;;;;;;5.63;2.57;;;19.40;99.90;;;;;;5049174;28;20416;-39
2021/08/08 10:59:50;;;;;;;5.57;2.40;;;19.30;99.90;;;;;;5038664;28;20413;-39
2021/08/08 11:02:24;;;;;;;4.10;2.80;;;19.20;99.90;;;;;;5035053;28;21002;-39
2021/08/08 11:04:49;;;;;;;4.37;2.37;;;19.20;99.90;;;;;;5027751;28;20799;-38
2021/08/08 11:07:24;;;;;;;4.13;2.30;;;19.30;99.90;;;;;;5038240;28;20467;-38
2021/08/08 11:09:49;;;;;;;4.10;2.60;;;19.40;99.90;;;;;;5044299;28;20649;-43
2021/08/08 11:12:18;;;;;;;4.63;2.30;;;19.40;99.90;;;;;;5031649;28;20927;-39
2021/08/08 11:14:48;;;;;;;5.73;2.63;;;19.50;99.90;;;;;;5033406;28;20194;-39
2021/08/08 11:17:13;;;;;;;4.10;2.30;;;19.60;99.90;;;;;;5027946;28;20431;-43
2021/08/08 11:19:42;;;;;;;3.93;2.43;;;19.70;99.90;;;;;;5027023;28;20496;-39
2021/08/08 11:22:13;;;;;;;6.57;2.60;;;19.80;99.90;;;;;;5037024;28;20198;-39
2021/08/08 11:24:41;;;;;;;3.73;2.77;;;19.80;99.90;;;;;;5043191;28;20497;-38
2021/08/08 11:27:08;;;;;;;5.73;2.60;;;19.80;99.90;;;;;;5029309;28;20499;-40
2021/08/08 11:29:34;;;;;;;5.50;2.73;;;19.70;99.90;;;;;;5028730;28;20417;-40
2021/08/08 11:32:02;;;;;;;4.50;2.60;;;19.70;99.90;;;;;;5027019;28;20445;-38
2021/08/08 11:34:28;;;;;;;4.67;2.37;;;19.70;99.90;;;;;;5027317;28;20417;-40
2021/08/08 11:36:56;;;;;;;5.03;2.47;;;19.70;99.90;;;;;;5033932;28;20691;-37
2021/08/08 11:39:29;;;;;;;6.40;2.80;;;19.70;99.90;;;;;;5042708;28;20447;-39
2021/08/08 11:42:06;;;;;;;5.47;2.50;;;19.70;99.90;;;;;;5027226;28;20459;-41
2021/08/08 11:44:43;;;;;;;2.67;2.30;;;19.80;99.90;;;;;;5040042;28;20493;-40
2021/08/08 11:47:09;;;;;;;6.80;3.37;;;19.70;99.90;;;;;;5026761;28;20564;-39
2021/08/08 11:49:46;;;;;;;5.10;2.40;;;19.70;99.90;;;;;;5027267;28;20432;-38
2021/08/08 11:52:17;;;;;;;3.63;2.23;;;19.70;99.90;;;;;;5036254;28;20424;-39
2021/08/08 11:54:46;;;;;;;3.83;2.10;;;19.70;99.90;;;;;;5036309;28;20424;-41
2021/08/08 11:57:25;;;;;;;4.87;2.03;;;19.60;99.90;;;;;;5027395;28;20504;-40
2021/08/08 11:59:51;;;;;;;3.93;2.00;;;19.60;99.90;;;;;;5033595;28;20710;-38
2021/08/08 12:02:24;;;;;;;5.10;2.30;;;19.60;99.90;;;;;;5027003;28;20498;-40
2021/08/08 12:04:52;;;;;;;6.13;2.63;;;19.60;99.90;;;;;;5026894;28;20843;-38
2021/08/08 12:07:18;;;;;;;6.47;2.57;;;19.60;99.90;;;;;;5034315;28;20479;-38
2021/08/08 12:09:48;;;;;;;4.87;2.30;;;19.60;99.90;;;;;;5036639;28;20448;-41
2021/08/08 12:12:14;;;;;;;5.70;2.20;;;19.50;99.90;;;;;;5043568;28;20404;-39
2021/08/08 12:14:41;;;;;;;4.67;2.03;;;19.60;99.90;;;;;;5029861;28;20428;-40
2021/08/08 12:17:21;;;;;;;8.80;2.70;;;19.50;99.90;;;;;;5035413;28;20431;-40
2021/08/08 12:19:54;;;;;;;3.47;2.67;;;19.40;99.90;;;;;;5035655;28;20419;-39
2021/08/08 12:22:27;;;;;;;4.53;2.10;;;19.40;99.90;;;;;;5041094;28;20432;-38
2021/08/08 12:25:07;;;;;;;3.60;2.13;;;19.40;99.90;;;;;;5041019;28;20494;-38
2021/08/08 12:27:32;;;;;;;1.70;1.60;;;19.40;99.90;;;;;;5026920;28;20460;-38
2021/08/08 12:29:59;;;;;;;2.53;2.00;;;19.50;99.90;;;;;;5037820;28;20412;-40
2021/08/08 12:32:30;;;;;;;5.33;2.20;;;19.60;99.90;;;;;;5026440;28;20194;-38
2021/08/08 12:35:25;;;;;;;3.20;2.30;;;19.60;99.90;;;;;;5026960;28;20425;-39
2021/08/08 12:37:51;;;;;;;6.00;2.20;;;19.60;99.90;;;;;;5027122;28;20425;-38
2021/08/08 12:40:23;;;;;;;3.70;2.03;;;19.80;99.90;;;;;;5040575;28;20710;-38
2021/08/08 12:42:49;;;;;;;5.50;2.40;;;19.90;99.90;;;;;;5032270;28;20500;-41
2021/08/08 12:45:17;;;;;;;2.70;1.90;;;20.00;99.90;;;;;;5039153;28;20567;-38